createdAt,value
2023-05-04T00:01:02.232Z,30.45
2023-05-04T00:03:30.059Z,38.55
2023-05-04T00:05:58.056Z,40.63
2023-05-04T00:08:25.874Z,38.13
2023-05-04T00:10:55.829Z,34.17
2023-05-04T00:13:23.925Z,34.70
2023-05-04T00:15:51.823Z,37.10
2023-05-04T00:18:19.489Z,39.17
2023-05-04T00:20:47.388Z,33.40
2023-05-04T00:23:15.171Z,39.03
2023-05-04T00:25:43.347Z,38.05
2023-05-04T00:28:11.050Z,32.50
2023-05-04T00:30:38.962Z,37.30
2023-05-04T00:33:06.856Z,39.15
2023-05-04T00:35:34.811Z,38.08
2023-05-04T00:38:05.035Z,38.35
2023-05-04T00:40:33.322Z,38.95
2023-05-04T00:43:01.106Z,44.17
2023-05-04T00:45:29.088Z,44.25
2023-05-04T00:47:56.830Z,42.47
2023-05-04T00:50:26.301Z,41.97
2023-05-04T00:52:58.426Z,47.38
2023-05-04T00:55:26.577Z,42.88
2023-05-04T00:57:54.404Z,44.15
2023-05-04T01:00:23.036Z,37.63
2023-05-04T01:02:51.229Z,44.00
2023-05-04T01:05:19.504Z,40.90
2023-05-04T01:08:13.418Z,45.38
2023-05-04T01:10:53.548Z,42.30
2023-05-04T01:13:23.097Z,39.83
2023-05-04T01:15:52.229Z,40.72
2023-05-04T01:18:19.888Z,40.70
2023-05-04T01:20:47.940Z,38.75
2023-05-04T01:23:16.616Z,42.38
2023-05-04T01:25:57.862Z,41.80
2023-05-04T01:29:04.456Z,46.50
2023-05-04T01:31:35.395Z,47.08
2023-05-04T01:34:03.520Z,45.60
2023-05-04T01:36:31.821Z,47.47
2023-05-04T01:39:00.002Z,41.72
2023-05-04T01:41:27.997Z,49.58
2023-05-04T01:43:55.996Z,45.00
2023-05-04T01:46:24.264Z,49.60
2023-05-04T01:48:51.999Z,51.67
2023-05-04T01:51:20.194Z,50.53
2023-05-04T01:53:47.947Z,50.28
2023-05-04T01:56:17.688Z,51.50
2023-05-04T01:58:45.857Z,46.85
2023-05-04T02:01:14.590Z,54.55
2023-05-04T02:03:42.534Z,53.70
2023-05-04T02:06:11.369Z,56.28
2023-05-04T02:08:39.355Z,61.25
2023-05-04T02:11:08.565Z,53.40
2023-05-04T02:13:36.661Z,56.28
2023-05-04T02:16:04.961Z,54.42
2023-05-04T02:18:32.679Z,51.08
2023-05-04T02:21:00.852Z,50.38
2023-05-04T02:23:28.593Z,50.80
2023-05-04T02:25:56.613Z,53.97
2023-05-04T02:28:24.782Z,55.40
2023-05-04T02:30:52.667Z,48.03
2023-05-04T02:33:20.423Z,55.83
2023-05-04T02:35:49.189Z,56.63
2023-05-04T02:38:16.820Z,56.63
2023-05-04T02:40:45.007Z,63.70
2023-05-04T02:43:12.705Z,58.08
2023-05-04T02:45:40.795Z,64.40
2023-05-04T02:48:09.032Z,58.92
2023-05-04T02:50:37.631Z,65.43
2023-05-04T02:53:05.301Z,63.78
2023-05-04T02:55:33.346Z,59.95
2023-05-04T02:58:01.284Z,59.78
2023-05-04T03:00:29.259Z,62.50
2023-05-04T03:02:57.034Z,58.20
2023-05-04T03:05:25.031Z,59.10
2023-05-04T03:07:53.572Z,60.97
2023-05-04T03:10:21.994Z,57.15
2023-05-04T03:12:50.500Z,61.60
2023-05-04T03:15:18.731Z,58.50
2023-05-04T03:17:46.619Z,65.45
2023-05-04T03:20:14.805Z,56.35
2023-05-04T03:22:43.245Z,61.72
2023-05-04T03:25:11.502Z,60.60
2023-05-04T03:27:39.176Z,61.72
2023-05-04T03:30:08.208Z,60.13
2023-05-04T03:32:37.425Z,67.20
2023-05-04T03:35:05.877Z,64.10
2023-05-04T03:37:33.660Z,68.82
2023-05-04T03:40:02.044Z,74.65
2023-05-04T03:42:29.790Z,72.57
2023-05-04T03:44:57.921Z,89.97
2023-05-04T03:47:25.684Z,121.97
2023-05-04T03:49:54.093Z,134.55
2023-05-04T03:52:21.855Z,130.32
2023-05-04T03:54:50.221Z,110.47
2023-05-04T03:57:18.176Z,99.22
2023-05-04T03:59:46.603Z,79.07
2023-05-04T04:02:14.853Z,82.72
2023-05-04T04:04:44.197Z,67.53
2023-05-04T04:07:12.464Z,70.18
2023-05-04T04:09:40.586Z,63.35
2023-05-04T04:12:08.282Z,67.85
2023-05-04T04:14:36.230Z,66.97
2023-05-04T04:17:03.955Z,60.67
2023-05-04T04:19:32.240Z,62.75
2023-05-04T04:22:00.050Z,61.80
2023-05-04T04:24:28.167Z,61.55
2023-05-04T04:26:56.097Z,61.97
2023-05-04T04:29:24.180Z,55.75
2023-05-04T04:31:51.818Z,52.78
2023-05-04T04:34:19.914Z,57.80
2023-05-04T04:36:47.592Z,59.08
2023-05-04T04:39:16.658Z,54.60
2023-05-04T04:41:44.401Z,52.33
2023-05-04T04:44:12.500Z,54.00
2023-05-04T04:46:40.416Z,49.17
2023-05-04T04:49:08.427Z,50.10
2023-05-04T04:51:36.653Z,48.33
2023-05-04T04:54:04.679Z,43.10
2023-05-04T04:56:32.418Z,39.75
2023-05-04T04:59:00.370Z,34.38
2023-05-04T05:01:28.206Z,33.35
2023-05-04T05:03:56.150Z,39.22
2023-05-04T05:06:24.037Z,40.78
2023-05-04T05:08:52.886Z,48.20
2023-05-04T05:11:20.813Z,33.33
2023-05-04T05:13:48.781Z,34.38
2023-05-04T05:16:16.458Z,32.33
2023-05-04T05:18:44.444Z,32.95
2023-05-04T05:21:12.189Z,31.55
2023-05-04T05:23:40.231Z,37.08
2023-05-04T05:26:07.874Z,35.25
2023-05-04T05:28:35.813Z,31.00
2023-05-04T05:31:03.913Z,32.08
2023-05-04T05:33:31.937Z,31.20
2023-05-04T05:35:59.649Z,34.40
2023-05-04T05:38:27.618Z,25.25
2023-05-04T05:40:55.632Z,29.38
2023-05-04T05:43:23.534Z,26.70
2023-05-04T05:45:51.194Z,24.63
2023-05-04T05:48:19.196Z,13.55
2023-05-04T05:50:46.820Z,15.15
2023-05-04T05:53:14.900Z,13.48
2023-05-04T05:55:42.544Z,15.35
2023-05-04T05:58:10.544Z,16.15
2023-05-04T06:00:38.291Z,17.30
2023-05-04T06:03:06.410Z,14.70
2023-05-04T06:05:37.212Z,11.18
2023-05-04T06:08:05.284Z,15.68
2023-05-04T06:10:33.605Z,9.50
2023-05-04T06:13:01.831Z,11.07
2023-05-04T06:15:29.594Z,8.00
2023-05-04T06:17:57.500Z,9.20
2023-05-04T06:20:25.224Z,6.85
2023-05-04T06:22:53.181Z,5.30
2023-05-04T06:25:21.042Z,8.07
2023-05-04T06:27:48.975Z,6.88
2023-05-04T06:30:16.903Z,6.18
2023-05-04T06:32:44.824Z,7.72
2023-05-04T06:35:13.774Z,4.70
2023-05-04T06:37:41.758Z,6.63
2023-05-04T06:40:10.227Z,4.90
2023-05-04T06:42:38.348Z,4.68
2023-05-04T06:45:06.645Z,4.80
2023-05-04T06:47:37.931Z,7.72
2023-05-04T06:50:09.739Z,7.55
2023-05-04T06:52:44.267Z,3.95
2023-05-04T06:55:12.065Z,3.95
2023-05-04T06:57:40.132Z,4.82
2023-05-04T07:00:08.961Z,4.85
2023-05-04T07:02:37.003Z,3.58
2023-05-04T07:05:04.978Z,4.90
2023-05-04T07:07:32.975Z,2.92
2023-05-04T07:10:00.645Z,2.88
2023-05-04T07:12:29.121Z,2.40
2023-05-04T07:14:56.816Z,4.63
2023-05-04T07:17:25.559Z,2.85
2023-05-04T07:19:53.512Z,2.65
2023-05-04T07:22:21.700Z,4.97
2023-05-04T07:24:49.488Z,4.57
2023-05-04T07:27:17.393Z,3.75
2023-05-04T07:29:45.073Z,2.45
2023-05-04T07:32:12.990Z,4.80
2023-05-04T07:34:45.765Z,2.45
2023-05-04T07:39:43.692Z,2.17
2023-05-04T07:42:11.786Z,2.35
2023-05-04T07:44:39.776Z,3.47
2023-05-04T07:47:08.141Z,4.25
2023-05-04T07:49:35.944Z,2.00
2023-05-04T07:52:04.609Z,2.83
2023-05-04T07:54:32.458Z,2.50
2023-05-04T07:57:03.698Z,4.97
2023-05-04T07:59:31.699Z,2.10
2023-05-04T08:01:59.829Z,3.08
2023-05-04T08:04:27.613Z,2.47
2023-05-04T08:06:55.511Z,2.15
2023-05-04T08:09:23.436Z,2.08
2023-05-04T08:11:51.344Z,2.50
2023-05-04T08:14:19.054Z,3.58
2023-05-04T08:16:47.774Z,4.13
2023-05-04T08:19:15.446Z,3.22
2023-05-04T08:21:43.385Z,4.05
2023-05-04T08:24:11.707Z,4.43
2023-05-04T08:26:39.784Z,3.63
2023-05-04T08:29:10.585Z,2.97
2023-05-04T08:31:40.513Z,2.80
2023-05-04T08:34:08.299Z,2.28
2023-05-04T08:36:36.353Z,1.70
2023-05-04T08:39:04.042Z,2.17
2023-05-04T08:41:32.370Z,3.35
2023-05-04T08:44:00.400Z,2.25
2023-05-04T08:46:31.615Z,2.28
2023-05-04T08:48:59.335Z,5.30
2023-05-04T08:51:27.673Z,2.60
2023-05-04T08:53:56.439Z,3.60
2023-05-04T08:56:25.492Z,2.47
2023-05-04T08:58:53.842Z,2.85
2023-05-04T09:01:22.781Z,5.63
2023-05-04T09:03:52.426Z,5.90
2023-05-04T09:06:21.094Z,3.08
2023-05-04T09:08:48.817Z,2.20
2023-05-04T09:11:17.137Z,2.97
2023-05-04T09:13:44.809Z,2.13
2023-05-04T09:16:14.981Z,2.75
2023-05-04T09:18:46.323Z,2.58
2023-05-04T09:21:14.403Z,4.70
2023-05-04T09:23:49.011Z,3.17
2023-05-04T09:26:30.676Z,3.40
2023-05-04T09:29:11.951Z,4.53
2023-05-04T09:31:58.632Z,3.45
2023-05-04T09:34:26.444Z,8.30
2023-05-04T09:37:01.973Z,6.07
2023-05-04T09:39:30.586Z,2.80
2023-05-04T09:41:58.809Z,5.50
2023-05-04T09:44:29.771Z,3.13
2023-05-04T09:46:59.046Z,3.20
2023-05-04T09:49:37.048Z,3.67
2023-05-04T09:52:07.065Z,2.63
2023-05-04T09:54:36.378Z,4.32
2023-05-04T09:57:17.709Z,3.25
2023-05-04T09:59:45.656Z,3.83
2023-05-04T10:02:22.822Z,7.32
2023-05-04T10:04:52.774Z,3.17
2023-05-04T10:07:21.234Z,3.10
2023-05-04T10:09:51.282Z,5.32
2023-05-04T10:12:19.445Z,2.78
2023-05-04T10:14:47.743Z,4.80
2023-05-04T10:17:40.892Z,4.57
2023-05-04T10:20:51.069Z,2.88
2023-05-04T10:23:31.015Z,2.63
2023-05-04T10:26:16.927Z,3.35
2023-05-04T10:29:35.947Z,3.38
2023-05-04T10:32:04.281Z,4.90
2023-05-04T10:34:34.611Z,4.43
2023-05-04T10:37:04.595Z,2.08
2023-05-04T10:39:35.320Z,3.17
2023-05-04T10:42:07.954Z,4.10
2023-05-04T10:44:49.068Z,2.90
2023-05-04T10:47:26.848Z,3.50
2023-05-04T10:50:04.832Z,4.35
2023-05-04T10:52:50.523Z,5.00
2023-05-04T10:55:19.987Z,6.60
2023-05-04T10:57:53.223Z,5.07
2023-05-04T11:00:22.028Z,4.43
2023-05-04T11:02:50.422Z,2.55
2023-05-04T11:05:20.395Z,3.63
2023-05-04T11:07:53.287Z,4.25
2023-05-04T11:10:23.526Z,4.28
2023-05-04T11:12:52.076Z,4.53
2023-05-04T11:15:21.318Z,5.22
2023-05-04T11:17:52.127Z,6.32
2023-05-04T11:20:25.496Z,4.50
2023-05-04T11:22:54.248Z,4.78
2023-05-04T11:25:29.548Z,4.15
2023-05-04T11:27:58.699Z,4.95
2023-05-04T11:30:36.487Z,3.15
2023-05-04T11:33:12.641Z,4.25
2023-05-04T11:35:42.412Z,4.45
2023-05-04T11:38:10.878Z,2.78
2023-05-04T11:40:41.317Z,7.45
2023-05-04T11:43:11.725Z,5.47
2023-05-04T11:45:41.528Z,4.57
2023-05-04T11:48:10.273Z,7.07
2023-05-04T11:50:38.697Z,4.35
2023-05-04T11:53:09.447Z,3.00
2023-05-04T11:55:38.226Z,4.93
2023-05-04T11:58:08.161Z,4.15
2023-05-04T12:00:40.511Z,2.78
2023-05-04T12:03:15.767Z,7.20
2023-05-04T12:05:52.460Z,3.95
2023-05-04T12:08:47.426Z,5.35
2023-05-04T12:11:25.924Z,4.75
2023-05-04T12:14:03.356Z,4.10
2023-05-04T12:16:31.643Z,3.53
2023-05-04T12:19:15.021Z,6.47
2023-05-04T12:21:53.769Z,5.53
2023-05-04T12:24:25.078Z,2.50
2023-05-04T12:26:53.293Z,8.07
2023-05-04T12:29:21.359Z,4.85
2023-05-04T12:31:49.441Z,3.78
2023-05-04T12:34:17.200Z,6.75
2023-05-04T12:36:45.213Z,3.30
2023-05-04T12:39:12.874Z,2.83
2023-05-04T12:41:41.067Z,2.38
2023-05-04T12:44:11.467Z,3.05
2023-05-04T12:46:39.419Z,2.40
2023-05-04T12:49:07.384Z,2.42
2023-05-04T12:51:35.649Z,2.80
2023-05-04T12:54:03.497Z,3.25
2023-05-04T12:56:32.181Z,3.92
2023-05-04T12:58:59.887Z,3.60
2023-05-04T13:01:27.860Z,2.90
2023-05-04T13:03:55.550Z,4.18
2023-05-04T13:06:23.583Z,4.25
2023-05-04T13:08:51.314Z,8.52
2023-05-04T13:11:20.169Z,6.47
2023-05-04T13:13:47.927Z,3.45
2023-05-04T13:16:17.187Z,8.43
2023-05-04T13:18:45.030Z,3.25
2023-05-04T13:21:13.779Z,3.42
2023-05-04T13:23:41.518Z,4.28
2023-05-04T13:26:09.563Z,5.65
2023-05-04T13:28:39.383Z,7.30
2023-05-04T13:31:08.771Z,5.10
2023-05-04T13:33:39.880Z,2.95
2023-05-04T13:36:08.211Z,6.65
2023-05-04T13:38:36.730Z,2.03
2023-05-04T13:41:04.716Z,9.60
2023-05-04T13:43:32.411Z,2.97
2023-05-04T13:46:03.865Z,2.38
2023-05-04T13:48:33.793Z,4.78
2023-05-04T13:51:04.087Z,4.40
2023-05-04T13:53:31.896Z,2.92
2023-05-04T13:55:59.897Z,4.82
2023-05-04T13:58:27.658Z,3.25
2023-05-04T14:00:56.459Z,5.10
2023-05-04T14:03:24.237Z,4.70
2023-05-04T14:05:52.728Z,4.30
2023-05-04T14:08:20.440Z,3.35
2023-05-04T14:10:48.393Z,2.92
2023-05-04T14:13:17.025Z,4.00
2023-05-04T14:15:47.262Z,3.80
2023-05-04T14:18:15.484Z,4.43
2023-05-04T14:20:43.623Z,3.78
2023-05-04T14:23:11.250Z,3.22
2023-05-04T14:25:42.042Z,4.20
2023-05-04T14:28:09.822Z,6.32
2023-05-04T14:30:37.789Z,8.43
2023-05-04T14:33:05.581Z,3.83
2023-05-04T14:35:34.529Z,2.10
2023-05-04T14:38:02.140Z,4.05
2023-05-04T14:40:30.191Z,3.03
2023-05-04T14:42:59.737Z,4.53
2023-05-04T14:45:27.789Z,2.58
2023-05-04T14:47:55.584Z,3.88
2023-05-04T14:50:23.619Z,4.43
2023-05-04T14:52:51.488Z,2.75
2023-05-04T14:55:19.413Z,5.60
2023-05-04T14:57:47.207Z,4.15
2023-05-04T15:00:16.172Z,3.88
2023-05-04T15:02:44.137Z,5.32
2023-05-04T15:05:12.822Z,3.30
2023-05-04T15:07:40.596Z,4.20
2023-05-04T15:10:10.616Z,6.50
2023-05-04T15:12:39.603Z,8.30
2023-05-04T15:15:08.163Z,5.40
2023-05-04T15:17:35.921Z,4.75
2023-05-04T15:20:05.023Z,4.13
2023-05-04T15:22:33.131Z,4.43
2023-05-04T15:25:01.894Z,6.45
2023-05-04T15:27:29.728Z,6.40
2023-05-04T15:29:57.987Z,2.97
2023-05-04T15:32:25.856Z,3.38
2023-05-04T15:35:04.437Z,6.25
2023-05-04T15:37:33.348Z,5.55
2023-05-04T15:40:02.668Z,7.32
2023-05-04T15:42:30.773Z,9.80
2023-05-04T15:44:58.740Z,6.55
2023-05-04T15:47:26.988Z,2.53
2023-05-04T15:49:55.214Z,2.75
2023-05-04T15:52:24.012Z,4.47
2023-05-04T15:54:51.926Z,3.78
2023-05-04T15:57:19.567Z,2.88
2023-05-04T15:59:49.619Z,2.25
2023-05-04T16:02:17.422Z,2.88
2023-05-04T16:04:45.707Z,3.08
2023-05-04T16:07:13.457Z,4.35
2023-05-04T16:09:41.499Z,16.10
2023-05-04T16:12:10.130Z,12.75
2023-05-04T16:14:38.095Z,2.58
2023-05-04T16:17:05.861Z,9.90
2023-05-04T16:19:33.788Z,11.80
2023-05-04T16:22:01.532Z,24.02
2023-05-04T16:24:29.469Z,10.07
2023-05-04T16:26:57.097Z,4.97
2023-05-04T16:29:25.159Z,2.75
2023-05-04T16:31:52.792Z,2.30
2023-05-04T16:34:20.800Z,3.90
2023-05-04T16:36:48.506Z,4.50
2023-05-04T16:39:18.758Z,4.07
2023-05-04T16:41:48.364Z,2.45
2023-05-04T16:44:16.541Z,3.60
2023-05-04T16:46:44.281Z,5.05
2023-05-04T16:49:14.606Z,3.58
2023-05-04T16:51:43.404Z,7.20
2023-05-04T16:54:11.561Z,2.70
2023-05-04T16:56:39.224Z,3.95
2023-05-04T16:59:07.356Z,4.82
2023-05-04T17:01:35.515Z,5.20
2023-05-04T17:04:03.536Z,7.55
2023-05-04T17:06:31.404Z,3.08
2023-05-04T17:08:59.317Z,2.88
2023-05-04T17:11:27.067Z,3.78
2023-05-04T17:13:56.095Z,5.25
2023-05-04T17:16:23.961Z,6.55
2023-05-04T17:18:51.894Z,3.92
2023-05-04T17:21:19.889Z,4.38
2023-05-04T17:23:47.793Z,6.00
2023-05-04T17:26:15.830Z,4.85
2023-05-04T17:28:44.406Z,8.30
2023-05-04T17:31:12.611Z,6.38
2023-05-04T17:33:40.710Z,7.30
2023-05-04T17:36:11.851Z,4.32
2023-05-04T17:38:41.278Z,3.60
2023-05-04T17:41:10.010Z,5.78
2023-05-04T17:43:38.907Z,6.90
2023-05-04T17:46:06.723Z,7.55
2023-05-04T17:48:36.424Z,7.05
2023-05-04T17:51:08.521Z,10.48
2023-05-04T17:53:36.748Z,9.68
2023-05-04T17:56:04.611Z,7.10
2023-05-04T17:58:32.553Z,4.68
2023-05-04T18:01:00.164Z,10.65
2023-05-04T18:03:28.369Z,7.38
2023-05-04T18:05:56.599Z,5.28
2023-05-04T18:08:24.618Z,7.75
2023-05-04T18:10:52.270Z,8.57
2023-05-04T18:13:20.432Z,26.75
2023-05-04T18:15:48.139Z,47.10
2023-05-04T18:18:16.386Z,61.35
2023-05-04T18:20:43.994Z,24.92
2023-05-04T18:23:11.962Z,51.72
2023-05-04T18:25:39.645Z,44.80
2023-05-04T18:28:08.396Z,48.03
2023-05-04T18:30:36.359Z,35.53
2023-05-04T18:33:04.736Z,30.50
2023-05-04T18:35:32.545Z,31.20
2023-05-04T18:38:00.669Z,27.70
2023-05-04T18:40:28.566Z,20.40
2023-05-04T18:42:56.624Z,20.00
2023-05-04T18:45:25.219Z,20.33
2023-05-04T18:47:53.321Z,21.42
2023-05-04T18:50:20.964Z,27.75
2023-05-04T18:52:48.974Z,30.25
2023-05-04T18:55:16.627Z,38.33
2023-05-04T18:57:44.672Z,30.33
2023-05-04T19:00:14.008Z,37.05
2023-05-04T19:02:42.013Z,28.55
2023-05-04T19:05:12.211Z,38.22
2023-05-04T19:07:41.788Z,43.25
2023-05-04T19:10:10.085Z,43.17
2023-05-04T19:12:38.039Z,32.33
2023-05-04T19:15:06.628Z,37.53
2023-05-04T19:17:34.957Z,40.78
2023-05-04T19:20:03.041Z,39.17
2023-05-04T19:22:31.172Z,47.40
2023-05-04T19:24:58.850Z,32.10
2023-05-04T19:27:26.903Z,28.30
2023-05-04T19:29:56.189Z,36.72
2023-05-04T19:32:25.195Z,30.40
2023-05-04T19:34:53.476Z,40.20
2023-05-04T19:37:22.020Z,30.42
2023-05-04T19:39:50.689Z,34.83
2023-05-04T19:42:18.683Z,41.20
2023-05-04T19:44:46.434Z,37.65
2023-05-04T19:47:14.419Z,45.17
2023-05-04T19:49:42.007Z,43.10
2023-05-04T19:52:10.063Z,45.08
2023-05-04T19:54:38.420Z,39.42
2023-05-04T19:57:06.996Z,38.67
2023-05-04T19:59:35.755Z,38.90
2023-05-04T20:02:03.868Z,47.30
2023-05-04T20:04:31.733Z,45.45
2023-05-04T20:06:59.697Z,52.47
2023-05-04T20:09:29.014Z,45.70
2023-05-04T20:11:57.004Z,49.72
2023-05-04T20:14:24.690Z,66.80
2023-05-04T20:16:52.738Z,48.00
2023-05-04T20:19:20.480Z,46.88
2023-05-04T20:21:48.823Z,43.25
2023-05-04T20:24:16.931Z,36.42
2023-05-04T20:26:45.079Z,46.88
2023-05-04T20:29:12.733Z,32.90
2023-05-04T20:31:41.441Z,39.92
2023-05-04T20:34:09.927Z,38.72
2023-05-04T20:36:37.808Z,40.10
2023-05-04T20:39:07.071Z,37.97
2023-05-04T20:41:35.113Z,44.75
2023-05-04T20:44:02.829Z,33.45
2023-05-04T20:46:32.040Z,40.63
2023-05-04T20:49:02.809Z,37.38
2023-05-04T20:51:31.582Z,44.53
2023-05-04T20:53:59.215Z,36.00
2023-05-04T20:56:27.341Z,39.75
2023-05-04T20:58:55.303Z,35.25
2023-05-04T21:01:23.507Z,35.78
2023-05-04T21:03:51.382Z,34.97
2023-05-04T21:06:19.365Z,34.05
2023-05-04T21:08:47.139Z,32.55
2023-05-04T21:11:15.074Z,44.35
2023-05-04T21:13:42.674Z,34.22
2023-05-04T21:16:11.395Z,40.92
2023-05-04T21:18:39.313Z,38.63
2023-05-04T21:21:07.277Z,45.42
2023-05-04T21:23:34.977Z,34.33
2023-05-04T21:26:04.066Z,35.75
2023-05-04T21:28:32.232Z,46.75
2023-05-04T21:31:00.314Z,38.35
2023-05-04T21:33:28.204Z,41.75
2023-05-04T21:35:56.215Z,44.10
2023-05-04T21:38:23.934Z,43.95
2023-05-04T21:40:51.852Z,39.97
2023-05-04T21:43:19.535Z,39.47
2023-05-04T21:45:47.501Z,41.08
2023-05-04T21:48:15.404Z,36.72
2023-05-04T21:50:43.321Z,36.30
2023-05-04T21:53:11.291Z,47.60
2023-05-04T21:55:39.218Z,39.47
2023-05-04T21:58:07.542Z,37.67
2023-05-04T22:00:35.540Z,46.83
2023-05-04T22:03:03.356Z,46.45
2023-05-04T22:05:31.261Z,43.80
2023-05-04T22:08:00.972Z,37.08
2023-05-04T22:10:29.139Z,41.95
2023-05-04T22:12:56.808Z,44.30
2023-05-04T22:15:31.683Z,39.17
2023-05-04T22:18:05.888Z,40.33
2023-05-04T22:20:34.685Z,43.28
2023-05-04T22:23:02.474Z,39.97
2023-05-04T22:25:31.293Z,40.88
2023-05-04T22:27:59.749Z,41.17
2023-05-04T22:30:28.262Z,44.75
2023-05-04T22:32:56.404Z,38.88
2023-05-04T22:35:24.632Z,40.00
2023-05-04T22:37:52.346Z,34.15
2023-05-04T22:40:20.418Z,37.00
2023-05-04T22:42:48.256Z,36.83
2023-05-04T22:45:18.348Z,34.67
2023-05-04T22:47:49.034Z,28.40
2023-05-04T22:50:17.522Z,30.23
2023-05-04T22:52:45.301Z,37.20
2023-05-04T22:55:13.290Z,25.05
2023-05-04T22:57:40.893Z,30.50
2023-05-04T23:00:10.023Z,26.25
2023-05-04T23:02:38.358Z,30.60
2023-05-04T23:05:07.047Z,28.48
2023-05-04T23:07:35.007Z,21.35
2023-05-04T23:10:03.560Z,25.80
2023-05-04T23:12:31.626Z,28.30
2023-05-04T23:14:59.657Z,24.83
2023-05-04T23:17:27.327Z,31.85
2023-05-04T23:19:55.606Z,26.88
2023-05-04T23:22:23.219Z,20.85
2023-05-04T23:24:51.191Z,22.17
2023-05-04T23:27:18.919Z,21.48
2023-05-04T23:29:46.895Z,20.98
2023-05-04T23:32:14.572Z,19.48
2023-05-04T23:34:42.870Z,21.63
2023-05-04T23:37:10.706Z,25.88
2023-05-04T23:39:38.565Z,30.23
2023-05-04T23:42:06.379Z,23.73
2023-05-04T23:44:34.278Z,25.83
2023-05-04T23:47:01.903Z,25.42
2023-05-04T23:49:29.914Z,30.17
2023-05-04T23:51:57.520Z,27.90
2023-05-04T23:54:25.396Z,28.55
2023-05-04T23:56:53.063Z,28.95
2023-05-04T23:59:21.128Z,30.00
